TFM - Tactical Decision Aid
ID: Runway Winds: CIG/VIS Threshold:

KAGS - Augusta Rgnl, GA, US

Updated at: 0819 UTC 18 Sep 2021
Latest TAF at: 0702 UTC 18 Sep 2021

TAF Board

Time0811Z 18/09Z 18/10Z 18/11Z 18/12Z 18/13Z 18/14Z 18/15Z 18/16Z 18/17Z 18/18Z 18/19Z 18/20Z 18/21Z>>
Type OBS PRVL
  [TEMP]  
PRVL
  [TEMP]  
PRVL PRVL PRVL PRVL PRVL PRVL PRVL PRVL PRVL PRVL PRVL
VIS 0.5 3
  [1]  
3
  [1]  
3 >6 >6 >6 >6 >6 >6 >6 >6 >6 >6
CIG 75 --
  [--]  
--
  [--]  
-- -- -- -- -- -- -- 50 50 50 50
Cover BKN SCT
  [SCT]  
SCT
  [SCT]  
SCT SCT SCT SCT SCT SCT SCT BKN BKN BKN BKN
FltCat LIFR MVFR
  [IFR]  
MVFR
  [IFR]  
MVFR VFR VFR VFR VFR VFR VFR VFR VFR VFR VFR
WX FG BR
  [BR]  
BR
  [BR]  
BR -- -- -- -- -- -- -- -- -- --
WDir VRB VRB
[VRB]
VRB
[VRB]
VRB 40 40 40 40 40 40 70 70 70 70
WSpd 0 0
  [0]  
0
  [0]  
0 4 4 4 4 4 4 5 5 5 5
WGst -- --
  [--]  
--
  [--]  
-- -- -- -- -- -- -- -- -- -- --

TDA Impact Legend

  None Marginal Slight Moderate High
Visibility (sm) >5 2.9≤X≤5 0.9≤X<2.9 <0.9
Ceiling (100 ft) >30 9.9≤X≤30 4.9≤X<9.9 <4.9
Wind Speed (kt) <15 15≤X<25 25≤X<30 ≥30
Wind Gust (kt) <15 15≤X<25 25≤X<35 ≥35
Weather No Wx Reported VCTS -TS,-FZRA TS,FZRA +TS,+FZRA
TAF
KAGS 180702Z 1807/1906 00000KT 3SM BR SCT090
  TEMPO 1807/1811 1SM BR
  FM181200 04004KT P6SM SCT020
  FM181800 07005KT P6SM BKN050


METAR
KAGS 180811Z AUTO 00000KT 1/2SM FG BKN075 22/21 A3009 RMK AO2 T02170206 RVRNO
KAGS 180800Z AUTO 00000KT 1 3/4SM BR BKN075 22/21 A3009 RMK AO2 T02170206
KAGS 180753Z AUTO 00000KT 7SM BKN075 22/21 A3009 RMK AO2 SLP186 T02170206
KAGS 180717Z AUTO 00000KT 7SM BKN070 22/21 A3009 RMK AO2 T02170206
KAGS 180708Z AUTO 00000KT 2 1/2SM BR BKN075 22/21 A3009 RMK AO2 T02170206
KAGS 180653Z AUTO 03004KT 6SM BR SCT075 22/21 A3009 RMK AO2 SLP188 T02170211
KAGS 180620Z AUTO 00000KT 8SM SCT095 22/21 A3009 RMK AO2 T02170211
KAGS 180613Z AUTO 00000KT 2 1/2SM BR FEW002 SCT095 22/21 A3009 RMK AO2 T02220211
KAGS 180602Z AUTO 00000KT 1/2SM FG VV002 22/21 A3009 RMK AO2 T02170211 RVRNO
KAGS 180553Z AUTO 00000KT 1/2SM FG SCT002 BKN090 22/21 A3009 RMK AO2 SLP187 60000 T02170211 10261 20217 58007 RVRNO
KAGS 180542Z AUTO 00000KT 1/2SM FG FEW002 SCT090 22/21 A3009 RMK AO2 T02220211 RVRNO
KAGS 180536Z AUTO 00000KT 1 3/4SM BR BKN090 22/22 A3009 RMK AO2 T02220217
KAGS 180515Z AUTO 00000KT 7SM OVC090 22/21 A3009 RMK AO2 T02220211
KAGS 180503Z AUTO 00000KT 1SM BR OVC090 23/22 A3010 RMK AO2 T02280217 RVRNO
KAGS 180453Z AUTO 00000KT 2 1/2SM BR BKN090 22/22 A3010 RMK AO2 VIS 2V3 SLP190 T02220217 403220211

Radar Display
Forecast Discussion